Map

Track Data

SID SEASON NUMBER BASIN SUBBASIN NAME ISO_TIME NATURE LAT LON WMO_WIND WMO_PRES WMO_AGENCY TRACK_TYPE DIST2LAND LANDFALL IFLAG USA_AGENCY USA_ATCF_ID USA_LAT USA_LON USA_RECORD USA_STATUS USA_WIND USA_PRES USA_SSHS USA_R34_NE USA_R34_SE USA_R34_SW USA_R34_NW USA_R50_NE USA_R50_SE USA_R50_SW USA_R50_NW USA_R64_NE USA_R64_SE USA_R64_SW USA_R64_NW USA_POCI USA_ROCI USA_RMW USA_EYE TOKYO_LAT TOKYO_LON TOKYO_GRADE TOKYO_WIND TOKYO_PRES TOKYO_R50_DIR TOKYO_R50_LONG TOKYO_R50_SHORT TOKYO_R30_DIR TOKYO_R30_LONG TOKYO_R30_SHORT TOKYO_LAND CMA_LAT CMA_LON CMA_CAT CMA_WIND CMA_PRES HKO_LAT HKO_LON HKO_CAT HKO_WIND HKO_PRES NEWDELHI_LAT NEWDELHI_LON NEWDELHI_GRADE NEWDELHI_WIND NEWDELHI_PRES NEWDELHI_CI NEWDELHI_DP NEWDELHI_POCI REUNION_LAT REUNION_LON REUNION_TYPE REUNION_WIND REUNION_PRES REUNION_TNUM REUNION_CI REUNION_RMW REUNION_R34_NE REUNION_R34_SE REUNION_R34_SW REUNION_R34_NW REUNION_R50_NE REUNION_R50_SE REUNION_R50_SW REUNION_R50_NW REUNION_R64_NE REUNION_R64_SE REUNION_R64_SW REUNION_R64_NW BOM_LAT BOM_LON BOM_TYPE BOM_WIND BOM_PRES BOM_TNUM BOM_CI BOM_RMW BOM_R34_NE BOM_R34_SE BOM_R34_SW BOM_R34_NW BOM_R50_NE BOM_R50_SE BOM_R50_SW BOM_R50_NW BOM_R64_NE BOM_R64_SE BOM_R64_SW BOM_R64_NW BOM_ROCI BOM_POCI BOM_EYE BOM_POS_METHOD BOM_PRES_METHOD NADI_LAT NADI_LON NADI_CAT NADI_WIND NADI_PRES WELLINGTON_LAT WELLINGTON_LON WELLINGTON_WIND WELLINGTON_PRES DS824_LAT DS824_LON DS824_STAGE DS824_WIND DS824_PRES TD9636_LAT TD9636_LON TD9636_STAGE TD9636_WIND TD9636_PRES TD9635_LAT TD9635_LON TD9635_WIND TD9635_PRES TD9635_ROCI NEUMANN_LAT NEUMANN_LON NEUMANN_CLASS NEUMANN_WIND NEUMANN_PRES MLC_LAT MLC_LON MLC_CLASS MLC_WIND MLC_PRES USA_GUST BOM_GUST BOM_GUST_PER REUNION_GUST REUNION_GUST_PER USA_SEAHGT USA_SEARAD_NE USA_SEARAD_SE USA_SEARAD_SW USA_SEARAD_NW STORM_SPEED STORM_DIR
1916263N18091 1916 50 NI BB NOT_NAMED 1916-09-19 00:00:00 TS 18.0000 91.0000 main 305 305 _________O____ -1 18.0000 91.0000 TC 64 3 307
1916263N18091 1916 50 NI BB NOT_NAMED 1916-09-19 03:00:00 TS 18.0917 90.8683 main 306 306 _________PO___ -1 18.1375 90.8025 TC 64 18.0000 91.0000 4 4 309
1916263N18091 1916 50 NI BB NOT_NAMED 1916-09-19 06:00:00 TS 18.2501 90.6745 main 306 306 _________OP___ -1 18.3000 90.6000 TC 64 18.1752 90.7863 4 5 312
1916263N18091 1916 50 NI BB NOT_NAMED 1916-09-19 09:00:00 TS 18.4358 90.4720 main 313 306 _________PP___ -1 18.5000 90.3925 TC 64 18.3503 90.5779 4 5 315
1916263N18091 1916 50 NI BB NOT_NAMED 1916-09-19 12:00:00 TS 18.6126 90.2903 main 315 315 _________OP___ -1 18.7000 90.2000 TC 64 18.5252 90.3806 4 5 316
1916263N18091 1916 50 NI BB NOT_NAMED 1916-09-19 15:00:00 TS 18.7750 90.1212 main 319 316 _________PO___ -1 18.8500 90.0424 TC 64 18.7000 90.2000 4 4 317
1916263N18091 1916 50 NI BB NOT_NAMED 1916-09-19 18:00:00 TS 18.9374 89.9697 main 316 288 _________OP___ -1 19.0000 89.9000 TC 64 18.8749 90.0395 4 5 321
1916263N18091 1916 50 NI BB NOT_NAMED 1916-09-19 21:00:00 TS 19.1249 89.8249 main 288 264 _________PP___ -1 19.2000 89.7575 TC 64 19.0498 89.8922 4 5 323
1916263N18091 1916 50 NI BB NOT_NAMED 1916-09-20 00:00:00 TS 19.3124 89.6744 main 264 238 _________OP___ -1 19.4000 89.6000 TC 64 19.2249 89.7489 4 5 319
1916263N18091 1916 50 NI BB NOT_NAMED 1916-09-20 03:00:00 TS 19.4750 89.5000 main 238 224 _________PO___ -1 19.5500 89.4000 TC 64 19.4000 89.6000 4 5 313
1916263N18091 1916 50 NI BB NOT_NAMED 1916-09-20 06:00:00 TS 19.6335 89.3080 main 224 201 _________OP___ -1 19.7000 89.2000 TC 64 19.5669 89.4159 4 5 314
1916263N18091 1916 50 NI BB NOT_NAMED 1916-09-20 09:00:00 TS 19.8138 89.1313 main 201 178 _________PP___ -1 19.8925 89.0350 TC 64 19.7351 89.2275 4 5 320
1916263N18091 1916 50 NI BB NOT_NAMED 1916-09-20 12:00:00 TS 20.0054 88.9752 main 178 156 _________OP___ -1 20.1000 88.9000 TC 64 19.9107 89.0503 4 5 325
1916263N18091 1916 50 NI BB NOT_NAMED 1916-09-20 15:00:00 TS 20.1962 88.8425 main 156 134 _________PO___ -1 20.2925 88.7850 TC 64 20.1000 88.9000 4 5 332
1916263N18091 1916 50 NI BB NOT_NAMED 1916-09-20 18:00:00 TS 20.4012 88.7500 main 134 113 _________OP___ -1 20.5000 88.7000 TC 64 20.3024 88.8000 4 5 342
1916263N18091 1916 50 NI BB NOT_NAMED 1916-09-20 21:00:00 TS 20.6274 88.6885 main 113 78 _________PP___ -1 20.7350 88.6499 TC 64 20.5199 88.7271 4 5 347
1916263N18091 1916 50 NI BB NOT_NAMED 1916-09-21 00:00:00 TS 20.8762 88.6328 main 78 56 _________OP___ -1 21.0000 88.6000 TC 64 20.7524 88.6657 4 5 347
1916263N18091 1916 50 NI BB NOT_NAMED 1916-09-21 03:00:00 TS 21.1500 88.5538 main 45 22 _________PO___ -1 21.3000 88.5075 TC 64 21.0000 88.6000 4 6 345
1916263N18091 1916 50 NI BB NOT_NAMED 1916-09-21 06:00:00 TS 21.4343 88.4677 main 22 0 _________OP___ -1 21.6000 88.4000 TC 64 21.2686 88.5353 4 6 344
1916263N18091 1916 50 NI BB NOT_NAMED 1916-09-21 09:00:00 TS 21.6998 88.3872 main 0 0 _________PP___ -1 21.8500 88.3148 TC 64 21.5497 88.4595 4 6 342
1916263N18091 1916 50 NI BB NOT_NAMED 1916-09-21 12:00:00 TS 21.9655 88.2770 main 0 0 _________OP___ -1 22.1000 88.2000 TC 64 21.8310 88.3540 4 6 336
1916263N18091 1916 50 NI BB NOT_NAMED 1916-09-21 15:00:00 TS 22.2575 88.1188 main 0 0 _________PO___ -1 22.4149 88.0375 TC 55 22.1000 88.2000 4 7 328
1916263N18091 1916 50 NI BB NOT_NAMED 1916-09-21 18:00:00 TS 22.5358 87.9000 main 0 0 _________OP___ -1 22.7000 87.8000 TC 47 22.3717 88.0001 4 7 317
1916263N18091 1916 50 NI BB NOT_NAMED 1916-09-21 21:00:00 TS 22.7561 87.6140 main 0 0 _________PP___ -1 22.8875 87.4800 TC 38 22.6247 87.7481 4 7 304
1916263N18091 1916 50 NI BB NOT_NAMED 1916-09-22 00:00:00 TS 22.9201 87.2735 main 0 0 _________OP___ -1 23.0000 87.1000 TC 30 22.8403 87.4470 4 7 293
1916263N18091 1916 50 NI BB NOT_NAMED 1916-09-22 03:00:00 TS 23.0362 86.9075 main 0 0 _________PO___ -1 23.0724 86.7149 TC 30 23.0000 87.1000 1 7 284
1916263N18091 1916 50 NI BB NOT_NAMED 1916-09-22 06:00:00 TS 23.0955 86.5048 main 0 0 _________OP___ -1 23.1000 86.3000 TC 30 23.0909 86.7095 1 8 276
1916263N18091 1916 50 NI BB NOT_NAMED 1916-09-22 09:00:00 TS 23.1164 86.0647 main 0 0 _________PP___ -1 23.1075 85.8499 TC 30 23.1254 86.2794 1 8 271
1916263N18091 1916 50 NI BB NOT_NAMED 1916-09-22 12:00:00 TS 23.1111 85.6173 main 0 0 _________OP___ -1 23.1000 85.4000 TC 30 23.1221 85.8346 1 8 269
1916263N18091 1916 50 NI BB NOT_NAMED 1916-09-22 15:00:00 TS 23.1037 85.1925 main 0 0 _________PO___ -1 23.1074 84.9851 TC 30 23.1000 85.4000 1 7 269
1916263N18091 1916 50 NI BB NOT_NAMED 1916-09-22 18:00:00 TS 23.0945 84.8052 main 0 0 _________OP___ -1 23.1000 84.6000 TC 30 23.0889 85.0105 1 7 266
1916263N18091 1916 50 NI BB NOT_NAMED 1916-09-22 21:00:00 TS 23.0609 84.4424 main 0 0 _________PP___ -1 23.0573 84.2500 TC 30 23.0644 84.6348 1 7 263
1916263N18091 1916 50 NI BB NOT_NAMED 1916-09-23 00:00:00 TS 23.0164 84.0834 main 0 0 _________OP___ -1 23.0000 83.9000 TC 30 23.0327 84.2668 1 7 263
1916263N18091 1916 50 NI BB NOT_NAMED 1916-09-23 03:00:00 TS 22.9713 83.7000 main 0 0 _________PO___ -1 22.9425 83.5000 TC 30 23.0000 83.9000 1 7 264
1916263N18091 1916 50 NI BB NOT_NAMED 1916-09-23 06:00:00 TS 22.9355 83.3023 main 0 0 _________OP___ -1 22.9000 83.1000 TC 30 22.9710 83.5047 1 7 266
1916263N18091 1916 50 NI BB NOT_NAMED 1916-09-23 09:00:00 TS 22.9175 82.9200 main 0 0 _________PP___ -1 22.8925 82.7276 TC 30 22.9426 83.1124 1 7 268
1916263N18091 1916 50 NI BB NOT_NAMED 1916-09-23 12:00:00 TS 22.9090 82.5695 main 0 0 _________OP___ -1 22.9000 82.4000 TC 30 22.9179 82.7390 1 6 268
1916263N18091 1916 50 NI BB NOT_NAMED 1916-09-23 15:00:00 TS 22.8999 82.2675 main 0 0 _________PO___ -1 22.8999 82.1350 TC 30 22.9000 82.4000 1 5 268
1916263N18091 1916 50 NI BB NOT_NAMED 1916-09-23 18:00:00 TS 22.8942 82.0050 main 0 0 _________OP___ -1 22.9000 81.9000 TC 30 22.8883 82.1101 1 5 269
1916263N18091 1916 50 NI BB NOT_NAMED 1916-09-23 21:00:00 TS 22.8922 81.7525 main 0 0 _________PP___ -1 22.9000 81.6500 TC 30 22.8845 81.8551 1 5 270
1916263N18091 1916 50 NI BB NOT_NAMED 1916-09-24 00:00:00 TS 22.8942 81.5113 main 0 0 _________OP___ -1 22.9000 81.4000 TC 30 22.8884 81.6225 1 4 271
1916263N18091 1916 50 NI BB NOT_NAMED 1916-09-24 03:00:00 TS 22.8962 81.2712 main 0 0 _________PO___ -1 22.8925 81.1425 TC 30 22.9000 81.4000 1 4 272
1916263N18091 1916 50 NI BB NOT_NAMED 1916-09-24 06:00:00 TS 22.9088 81.0380 main 0 0 _________OP___ -1 22.9000 80.9000 TC 30 22.9176 81.1760 1 4 277
1916263N18091 1916 50 NI BB NOT_NAMED 1916-09-24 09:00:00 TS 22.9460 80.8325 main 0 0 _________PP___ -1 22.9499 80.7075 TC 30 22.9422 80.9575 1 4 281
1916263N18091 1916 50 NI BB NOT_NAMED 1916-09-24 12:00:00 TS 22.9853 80.6177 main 0 0 _________OP___ -1 23.0000 80.5000 TC 30 22.9707 80.7353 1 4 277
1916263N18091 1916 50 NI BB NOT_NAMED 1916-09-24 15:00:00 TS 23.0000 80.3537 main 0 0 _________PO___ -1 23.0001 80.2074 TC 30 23.0000 80.5000 1 5 272
1916263N18091 1916 50 NI BB NOT_NAMED 1916-09-24 18:00:00 TS 23.0064 80.0655 main 0 0 _________OP___ -1 23.0000 79.9000 TC 30 23.0129 80.2311 1 5 273
1916263N18091 1916 50 NI BB NOT_NAMED 1916-09-24 21:00:00 TS 23.0313 79.7961 main 0 0 _________PP___ -1 23.0349 79.6425 TC 30 23.0276 79.9498 1 5 278
1916263N18091 1916 50 NI BB NOT_NAMED 1916-09-25 00:00:00 TS 23.0768 79.5343 main 0 0 _________OP___ -1 23.1000 79.4000 TC 30 23.0535 79.6686 1 5 283
1916263N18091 1916 50 NI BB NOT_NAMED 1916-09-25 03:00:00 TS 23.1462 79.2713 main 0 0 _________PO___ -1 23.1925 79.1425 TC 30 23.1000 79.4000 1 5 289
1916263N18091 1916 50 NI BB NOT_NAMED 1916-09-25 06:00:00 TS 23.2392 79.0263 main 0 0 _________OP___ -1 23.3000 78.9000 TC 30 23.1783 79.1526 1 5 294
1916263N18091 1916 50 NI BB NOT_NAMED 1916-09-25 09:00:00 TS 23.3386 78.8063 main 0 0 _________PP___ -1 23.3999 78.6925 TC 30 23.2773 78.9201 1 4 298
1916263N18091 1916 50 NI BB NOT_NAMED 1916-09-25 12:00:00 TS 23.4439 78.6013 main 0 0 _________OP___ -1 23.5000 78.5000 TC 30 23.3877 78.7026 1 4 299
1916263N18091 1916 50 NI BB NOT_NAMED 1916-09-25 15:00:00 TS 23.5500 78.3962 main 0 0 _________PO___ -1 23.6000 78.2925 TC 30 23.5000 78.5000 1 4 300
1916263N18091 1916 50 NI BB NOT_NAMED 1916-09-25 18:00:00 TS 23.6499 78.2052 main 0 0 _________OP___ -1 23.7000 78.1000 TC 30 23.5998 78.3105 1 4 302
1916263N18091 1916 50 NI BB NOT_NAMED 1916-09-25 21:00:00 TS 23.7499 78.0424 main 0 0 _________PP___ -1 23.7999 77.9499 TC 30 23.6998 78.1348 1 4 304
1916263N18091 1916 50 NI AS NOT_NAMED 1916-09-26 00:00:00 TS 23.8499 77.8834 main 0 0 _________OP___ -1 23.9000 77.8000 TC 30 23.7999 77.9668 1 4 302
1916263N18091 1916 50 NI AS NOT_NAMED 1916-09-26 03:00:00 TS 23.9500 77.7000 main 0 0 _________PO___ -1 24.0000 77.6000 TC 30 23.9000 77.8000 1 4 301
1916263N18091 1916 50 NI AS NOT_NAMED 1916-09-26 06:00:00 TS 24.0520 77.5084 main 0 0 _________OP___ -1 24.1000 77.4000 TC 30 24.0041 77.6169 1 4 302
1916263N18091 1916 50 NI AS NOT_NAMED 1916-09-26 09:00:00 TS 24.1575 77.3387 main 0 0 _________PP___ -1 24.2075 77.2425 TC 30 24.1075 77.4350 1 4 304
1916263N18091 1916 50 NI AS NOT_NAMED 1916-09-26 12:00:00 TS 24.2536 77.1803 main 0 0 _________OP___ -1 24.3000 77.1000 TC 30 24.2072 77.2606 1 3 300
1916263N18091 1916 50 NI AS NOT_NAMED 1916-09-26 15:00:00 TS 24.3250 77.0212 main 0 0 _________PO___ -1 24.3500 76.9425 TC 30 24.3000 77.1000 1 3 296
1916263N18091 1916 50 NI AS NOT_NAMED 1916-09-26 18:00:00 TS 24.3828 76.8923 main 0 0 _________OP___ -1 24.4000 76.8000 TC 30 24.3657 76.9846 1 2 303
1916263N18091 1916 50 NI AS NOT_NAMED 1916-09-26 21:00:00 TS 24.4560 76.8009 main 0 0 _________PP___ -1 24.4849 76.7224 TC 30 24.4271 76.8793 1 3 311
1916263N18091 1916 50 NI AS NOT_NAMED 1916-09-27 00:00:00 TS 24.5500 76.6797 main 0 0 _________OP___ -1 24.6000 76.6000 TC 30 24.5000 76.7595 1 4 304
1916263N18091 1916 50 NI AS NOT_NAMED 1916-09-27 03:00:00 TS 24.6676 76.4613 main 0 0 _________PO___ -1 24.7351 76.3225 TC 30 24.6000 76.6000 1 5 301
1916263N18091 1916 50 NI AS NOT_NAMED 1916-09-27 06:00:00 TS 24.8253 76.1802 main 0 0 _________OP___ -1 24.9000 76.0000 TC 30 24.7506 76.3604 1 6 305
1916263N18091 1916 50 NI AS NOT_NAMED 1916-09-27 09:00:00 TS 25.0139 75.9115 main 0 0 _________PP___ -1 25.0999 75.7425 TC 30 24.9279 76.0805 1 6 308
1916263N18091 1916 50 NI AS NOT_NAMED 1916-09-27 12:00:00 TS 25.2081 75.6427 main 0 0 _________OP___ -1 25.3000 75.5000 TC 30 25.1162 75.7853 1 6 307
1916263N18091 1916 50 NI AS NOT_NAMED 1916-09-27 15:00:00 TS 25.3787 75.3712 main 0 0 _________PO___ -1 25.4575 75.2424 TC 30 25.3000 75.5000 1 6 305
1916263N18091 1916 50 NI AS NOT_NAMED 1916-09-27 18:00:00 TS 25.5242 75.1396 main 0 0 _________OP___ -1 25.6000 75.0000 TC 30 25.4674 75.2442 1 5 306
1916263N18091 1916 50 NI AS NOT_NAMED 1916-09-27 21:00:00 TS 25.6709 74.9250 main 0 0 _________PP___ -1 25.7475 74.7901 TC 30 25.6199 75.0149 1 5 308
1916263N18091 1916 50 NI AS NOT_NAMED 1916-09-28 00:00:00 TS 25.8083 74.7354 main 0 0 _________OP___ -1 25.9000 74.6000 TC 30 25.7625 74.8032 1 4 308
1916263N18091 1916 50 NI AS NOT_NAMED 1916-09-28 03:00:00 NR 25.9000 74.6000 main 0 __________O___ -1 TC 25.9000 74.6000 1 3 308

About IBTrACS Database

This database is a web-friendly format of International Best Track Archive for Climate Stewardship (IBTrACS), a global best track data archive curated by NOAA dating back to 1842.

Updated: 2021-10-21